sensor_id;sensor_type;location;lat;lon;timestamp;temperature;humidity
7512;DHT22;9999;48.780;9.146;2023-06-24T00:00:06;18.10;99.90
7512;DHT22;9999;48.780;9.146;2023-06-24T00:02:36;18.10;99.90
7512;DHT22;9999;48.780;9.146;2023-06-24T00:05:05;18.10;99.90
7512;DHT22;9999;48.780;9.146;2023-06-24T00:07:34;18.00;99.90
7512;DHT22;9999;48.780;9.146;2023-06-24T00:10:10;18.10;99.90
7512;DHT22;9999;48.780;9.146;2023-06-24T00:12:37;18.00;99.90
7512;DHT22;9999;48.780;9.146;2023-06-24T00:15:07;17.90;99.90
7512;DHT22;9999;48.780;9.146;2023-06-24T00:17:35;17.90;99.90
7512;DHT22;9999;48.780;9.146;2023-06-24T00:20:02;17.90;99.90
7512;DHT22;9999;48.780;9.146;2023-06-24T00:22:34;17.70;99.90
7512;DHT22;9999;48.780;9.146;2023-06-24T00:25:01;17.80;99.90
7512;DHT22;9999;48.780;9.146;2023-06-24T00:27:28;17.80;99.90
7512;DHT22;9999;48.780;9.146;2023-06-24T00:29:58;17.80;99.90
7512;DHT22;9999;48.780;9.146;2023-06-24T00:32:26;17.70;99.90
7512;DHT22;9999;48.780;9.146;2023-06-24T00:34:53;17.80;99.90
7512;DHT22;9999;48.780;9.146;2023-06-24T00:37:23;17.70;99.90
7512;DHT22;9999;48.780;9.146;2023-06-24T00:39:51;17.60;99.90
7512;DHT22;9999;48.780;9.146;2023-06-24T00:42:19;17.60;99.90
7512;DHT22;9999;48.780;9.146;2023-06-24T00:44:46;17.60;99.90
7512;DHT22;9999;48.780;9.146;2023-06-24T00:47:14;17.60;99.90
7512;DHT22;9999;48.780;9.146;2023-06-24T00:49:42;17.60;99.90
7512;DHT22;9999;48.780;9.146;2023-06-24T00:52:11;17.60;99.90
7512;DHT22;9999;48.780;9.146;2023-06-24T00:54:41;17.50;99.90
7512;DHT22;9999;48.780;9.146;2023-06-24T00:57:10;17.60;99.90
7512;DHT22;9999;48.780;9.146;2023-06-24T00:59:37;17.60;99.90
7512;DHT22;9999;48.780;9.146;2023-06-24T01:02:05;17.60;99.90
7512;DHT22;9999;48.780;9.146;2023-06-24T01:04:33;17.60;99.90
7512;DHT22;9999;48.780;9.146;2023-06-24T01:07:01;17.60;99.90
7512;DHT22;9999;48.780;9.146;2023-06-24T01:09:29;17.50;99.90
7512;DHT22;9999;48.780;9.146;2023-06-24T01:11:57;17.40;99.90
7512;DHT22;9999;48.780;9.146;2023-06-24T01:14:25;17.30;99.90
7512;DHT22;9999;48.780;9.146;2023-06-24T01:16:59;17.30;99.90
7512;DHT22;9999;48.780;9.146;2023-06-24T01:19:49;17.20;99.90
7512;DHT22;9999;48.780;9.146;2023-06-24T01:22:37;17.20;99.90
7512;DHT22;9999;48.780;9.146;2023-06-24T01:25:23;17.20;99.90
7512;DHT22;9999;48.780;9.146;2023-06-24T01:28:13;17.20;99.90
7512;DHT22;9999;48.780;9.146;2023-06-24T01:31:06;17.30;99.90
7512;DHT22;9999;48.780;9.146;2023-06-24T01:33:52;17.20;99.90
7512;DHT22;9999;48.780;9.146;2023-06-24T01:36:29;17.20;99.90
7512;DHT22;9999;48.780;9.146;2023-06-24T01:39:02;17.20;99.90
7512;DHT22;9999;48.780;9.146;2023-06-24T01:41:32;17.10;99.90
7512;DHT22;9999;48.780;9.146;2023-06-24T01:44:01;17.10;99.90
7512;DHT22;9999;48.780;9.146;2023-06-24T01:46:29;17.10;99.90
7512;DHT22;9999;48.780;9.146;2023-06-24T01:49:01;17.10;99.90
7512;DHT22;9999;48.780;9.146;2023-06-24T01:51:31;17.10;99.90
7512;DHT22;9999;48.780;9.146;2023-06-24T01:54:01;17.10;99.90
7512;DHT22;9999;48.780;9.146;2023-06-24T01:56:29;17.10;99.90
7512;DHT22;9999;48.780;9.146;2023-06-24T01:58:59;17.00;99.90
7512;DHT22;9999;48.780;9.146;2023-06-24T02:01:28;17.00;99.90
7512;DHT22;9999;48.780;9.146;2023-06-24T02:03:59;16.90;99.90
7512;DHT22;9999;48.780;9.146;2023-06-24T02:06:28;16.80;99.90
7512;DHT22;9999;48.780;9.146;2023-06-24T02:08:58;16.70;99.90
7512;DHT22;9999;48.780;9.146;2023-06-24T02:11:28;16.60;99.90
7512;DHT22;9999;48.780;9.146;2023-06-24T02:13:59;16.30;99.90
7512;DHT22;9999;48.780;9.146;2023-06-24T02:16:26;16.40;99.90
7512;DHT22;9999;48.780;9.146;2023-06-24T02:18:55;16.40;99.90
7512;DHT22;9999;48.780;9.146;2023-06-24T02:21:26;16.20;99.90
7512;DHT22;9999;48.780;9.146;2023-06-24T02:23:54;16.20;99.90
7512;DHT22;9999;48.780;9.146;2023-06-24T02:26:22;16.20;99.90
7512;DHT22;9999;48.780;9.146;2023-06-24T02:28:49;16.20;99.90
7512;DHT22;9999;48.780;9.146;2023-06-24T02:31:17;16.20;99.90
7512;DHT22;9999;48.780;9.146;2023-06-24T02:33:44;16.10;99.90
7512;DHT22;9999;48.780;9.146;2023-06-24T02:36:11;16.20;99.90
7512;DHT22;9999;48.780;9.146;2023-06-24T02:38:40;16.10;99.90
7512;DHT22;9999;48.780;9.146;2023-06-24T02:41:07;16.20;99.90
7512;DHT22;9999;48.780;9.146;2023-06-24T02:43:34;16.20;99.90
7512;DHT22;9999;48.780;9.146;2023-06-24T02:46:03;16.20;99.90
7512;DHT22;9999;48.780;9.146;2023-06-24T02:48:33;16.20;99.90
7512;DHT22;9999;48.780;9.146;2023-06-24T02:51:02;16.20;99.90
7512;DHT22;9999;48.780;9.146;2023-06-24T02:53:30;16.10;99.90
7512;DHT22;9999;48.780;9.146;2023-06-24T02:56:00;16.10;99.90
7512;DHT22;9999;48.780;9.146;2023-06-24T02:58:30;16.10;99.90
7512;DHT22;9999;48.780;9.146;2023-06-24T03:01:02;16.10;99.90
7512;DHT22;9999;48.780;9.146;2023-06-24T03:03:37;16.10;99.90
7512;DHT22;9999;48.780;9.146;2023-06-24T03:06:10;16.20;99.90
7512;DHT22;9999;48.780;9.146;2023-06-24T03:08:39;16.20;99.90
7512;DHT22;9999;48.780;9.146;2023-06-24T03:11:07;16.20;99.90
7512;DHT22;9999;48.780;9.146;2023-06-24T03:13:35;16.20;99.90
7512;DHT22;9999;48.780;9.146;2023-06-24T03:16:18;16.20;99.90
7512;DHT22;9999;48.780;9.146;2023-06-24T03:18:52;16.20;99.90
7512;DHT22;9999;48.780;9.146;2023-06-24T03:21:20;16.10;99.90
7512;DHT22;9999;48.780;9.146;2023-06-24T03:23:48;16.10;99.90
7512;DHT22;9999;48.780;9.146;2023-06-24T03:26:17;16.10;99.90
7512;DHT22;9999;48.780;9.146;2023-06-24T03:28:44;16.20;99.90
7512;DHT22;9999;48.780;9.146;2023-06-24T03:31:15;16.30;99.90
7512;DHT22;9999;48.780;9.146;2023-06-24T03:33:42;16.20;99.90
7512;DHT22;9999;48.780;9.146;2023-06-24T03:36:11;16.30;99.90
7512;DHT22;9999;48.780;9.146;2023-06-24T03:38:38;16.30;99.90
7512;DHT22;9999;48.780;9.146;2023-06-24T03:41:05;16.20;99.90
7512;DHT22;9999;48.780;9.146;2023-06-24T03:43:34;16.20;99.90
7512;DHT22;9999;48.780;9.146;2023-06-24T03:46:01;16.20;99.90
7512;DHT22;9999;48.780;9.146;2023-06-24T03:48:28;16.20;99.90
7512;DHT22;9999;48.780;9.146;2023-06-24T03:50:55;16.30;99.90
7512;DHT22;9999;48.780;9.146;2023-06-24T03:53:22;16.40;99.90
7512;DHT22;9999;48.780;9.146;2023-06-24T03:55:50;16.30;99.90
7512;DHT22;9999;48.780;9.146;2023-06-24T03:58:17;16.30;99.90
7512;DHT22;9999;48.780;9.146;2023-06-24T04:00:48;16.20;99.90
7512;DHT22;9999;48.780;9.146;2023-06-24T04:03:15;16.10;99.90
7512;DHT22;9999;48.780;9.146;2023-06-24T04:05:43;16.10;99.90
7512;DHT22;9999;48.780;9.146;2023-06-24T04:08:10;16.20;99.90
7512;DHT22;9999;48.780;9.146;2023-06-24T04:10:38;16.20;99.90
7512;DHT22;9999;48.780;9.146;2023-06-24T04:13:04;16.20;99.90
7512;DHT22;9999;48.780;9.146;2023-06-24T04:15:32;16.10;99.90
7512;DHT22;9999;48.780;9.146;2023-06-24T04:18:00;16.10;99.90
7512;DHT22;9999;48.780;9.146;2023-06-24T04:20:27;16.10;99.90
7512;DHT22;9999;48.780;9.146;2023-06-24T04:22:54;16.10;99.90
7512;DHT22;9999;48.780;9.146;2023-06-24T04:25:21;16.20;99.90
7512;DHT22;9999;48.780;9.146;2023-06-24T04:27:48;16.20;99.90
7512;DHT22;9999;48.780;9.146;2023-06-24T04:30:15;16.30;99.90
7512;DHT22;9999;48.780;9.146;2023-06-24T04:32:42;16.30;99.90
7512;DHT22;9999;48.780;9.146;2023-06-24T04:35:10;16.30;99.90
7512;DHT22;9999;48.780;9.146;2023-06-24T04:37:37;16.30;99.90
7512;DHT22;9999;48.780;9.146;2023-06-24T04:40:05;16.40;99.90
7512;DHT22;9999;48.780;9.146;2023-06-24T04:42:33;16.50;99.90
7512;DHT22;9999;48.780;9.146;2023-06-24T04:44:59;16.50;99.90
7512;DHT22;9999;48.780;9.146;2023-06-24T04:47:27;16.40;99.90
7512;DHT22;9999;48.780;9.146;2023-06-24T04:49:54;16.40;99.90
7512;DHT22;9999;48.780;9.146;2023-06-24T04:52:23;16.50;99.90
7512;DHT22;9999;48.780;9.146;2023-06-24T04:54:49;16.50;99.90
7512;DHT22;9999;48.780;9.146;2023-06-24T04:57:23;16.50;99.90
7512;DHT22;9999;48.780;9.146;2023-06-24T04:59:50;16.50;99.90
7512;DHT22;9999;48.780;9.146;2023-06-24T05:02:17;16.50;99.90
7512;DHT22;9999;48.780;9.146;2023-06-24T05:04:44;16.60;99.90
7512;DHT22;9999;48.780;9.146;2023-06-24T05:07:10;16.60;99.90
7512;DHT22;9999;48.780;9.146;2023-06-24T05:09:39;16.60;99.90
7512;DHT22;9999;48.780;9.146;2023-06-24T05:12:07;16.60;99.90
7512;DHT22;9999;48.780;9.146;2023-06-24T05:14:34;16.60;99.90
7512;DHT22;9999;48.780;9.146;2023-06-24T05:17:01;16.60;99.90
7512;DHT22;9999;48.780;9.146;2023-06-24T05:19:28;16.50;99.90
7512;DHT22;9999;48.780;9.146;2023-06-24T05:21:55;16.60;99.90
7512;DHT22;9999;48.780;9.146;2023-06-24T05:24:22;16.60;99.90
7512;DHT22;9999;48.780;9.146;2023-06-24T05:26:50;16.60;99.90
7512;DHT22;9999;48.780;9.146;2023-06-24T05:29:18;16.70;99.90
7512;DHT22;9999;48.780;9.146;2023-06-24T05:31:44;16.70;99.90
7512;DHT22;9999;48.780;9.146;2023-06-24T05:34:12;16.70;99.90
7512;DHT22;9999;48.780;9.146;2023-06-24T05:36:39;16.80;99.90
7512;DHT22;9999;48.780;9.146;2023-06-24T05:39:06;16.80;99.90
7512;DHT22;9999;48.780;9.146;2023-06-24T05:41:33;16.80;99.90
7512;DHT22;9999;48.780;9.146;2023-06-24T05:44:03;16.90;99.90
7512;DHT22;9999;48.780;9.146;2023-06-24T05:46:30;16.90;99.90
7512;DHT22;9999;48.780;9.146;2023-06-24T05:48:57;17.00;99.90
7512;DHT22;9999;48.780;9.146;2023-06-24T05:51:24;17.10;99.90
7512;DHT22;9999;48.780;9.146;2023-06-24T05:53:51;17.20;99.90
7512;DHT22;9999;48.780;9.146;2023-06-24T05:56:19;17.40;99.90
7512;DHT22;9999;48.780;9.146;2023-06-24T05:58:46;17.50;99.90
7512;DHT22;9999;48.780;9.146;2023-06-24T06:01:14;17.70;99.90
7512;DHT22;9999;48.780;9.146;2023-06-24T06:03:41;17.80;99.90
7512;DHT22;9999;48.780;9.146;2023-06-24T06:06:08;17.90;99.90
7512;DHT22;9999;48.780;9.146;2023-06-24T06:08:34;18.00;99.90
7512;DHT22;9999;48.780;9.146;2023-06-24T06:11:01;18.10;99.90
7512;DHT22;9999;48.780;9.146;2023-06-24T06:13:28;18.20;99.90
7512;DHT22;9999;48.780;9.146;2023-06-24T06:15:55;18.30;99.90
7512;DHT22;9999;48.780;9.146;2023-06-24T06:18:23;18.40;99.90
7512;DHT22;9999;48.780;9.146;2023-06-24T06:20:50;18.60;99.90
7512;DHT22;9999;48.780;9.146;2023-06-24T06:23:17;18.60;99.90
7512;DHT22;9999;48.780;9.146;2023-06-24T06:25:44;18.70;99.90
7512;DHT22;9999;48.780;9.146;2023-06-24T06:28:13;18.70;99.90
7512;DHT22;9999;48.780;9.146;2023-06-24T06:30:40;18.90;99.90
7512;DHT22;9999;48.780;9.146;2023-06-24T06:33:07;19.00;99.90
7512;DHT22;9999;48.780;9.146;2023-06-24T06:35:35;19.10;99.90
7512;DHT22;9999;48.780;9.146;2023-06-24T06:38:02;19.20;99.90
7512;DHT22;9999;48.780;9.146;2023-06-24T06:40:30;19.30;99.90
7512;DHT22;9999;48.780;9.146;2023-06-24T06:42:56;19.40;99.90
7512;DHT22;9999;48.780;9.146;2023-06-24T06:45:23;19.40;99.90
7512;DHT22;9999;48.780;9.146;2023-06-24T06:47:50;19.60;99.90
7512;DHT22;9999;48.780;9.146;2023-06-24T06:50:18;19.70;99.90
7512;DHT22;9999;48.780;9.146;2023-06-24T06:52:47;19.90;99.90
7512;DHT22;9999;48.780;9.146;2023-06-24T06:55:14;20.10;99.90
7512;DHT22;9999;48.780;9.146;2023-06-24T06:57:41;20.30;99.90
7512;DHT22;9999;48.780;9.146;2023-06-24T07:00:09;20.50;99.90
7512;DHT22;9999;48.780;9.146;2023-06-24T07:02:36;20.70;99.90
7512;DHT22;9999;48.780;9.146;2023-06-24T07:05:03;20.90;99.90
7512;DHT22;9999;48.780;9.146;2023-06-24T07:07:31;20.80;99.90
7512;DHT22;9999;48.780;9.146;2023-06-24T07:09:59;21.00;99.90
7512;DHT22;9999;48.780;9.146;2023-06-24T07:12:26;21.10;99.90
7512;DHT22;9999;48.780;9.146;2023-06-24T07:14:53;21.20;99.90
7512;DHT22;9999;48.780;9.146;2023-06-24T07:17:20;21.30;99.90
7512;DHT22;9999;48.780;9.146;2023-06-24T07:19:46;21.50;99.90
7512;DHT22;9999;48.780;9.146;2023-06-24T07:22:13;21.60;99.90
7512;DHT22;9999;48.780;9.146;2023-06-24T07:24:41;22.00;99.90
7512;DHT22;9999;48.780;9.146;2023-06-24T07:27:09;22.30;99.90
7512;DHT22;9999;48.780;9.146;2023-06-24T07:29:36;22.40;99.90
7512;DHT22;9999;48.780;9.146;2023-06-24T07:32:03;22.50;99.90
7512;DHT22;9999;48.780;9.146;2023-06-24T07:34:31;22.80;99.90
7512;DHT22;9999;48.780;9.146;2023-06-24T07:36:58;22.70;99.90
7512;DHT22;9999;48.780;9.146;2023-06-24T07:39:25;23.10;99.90
7512;DHT22;9999;48.780;9.146;2023-06-24T07:41:52;23.40;99.90
7512;DHT22;9999;48.780;9.146;2023-06-24T07:44:20;23.10;99.90
7512;DHT22;9999;48.780;9.146;2023-06-24T07:46:47;23.20;99.90
7512;DHT22;9999;48.780;9.146;2023-06-24T07:49:16;23.50;99.90
7512;DHT22;9999;48.780;9.146;2023-06-24T07:51:43;24.10;99.90
7512;DHT22;9999;48.780;9.146;2023-06-24T07:54:11;24.30;98.70
7512;DHT22;9999;48.780;9.146;2023-06-24T07:56:38;24.70;98.20
7512;DHT22;9999;48.780;9.146;2023-06-24T07:59:05;24.80;96.60
7512;DHT22;9999;48.780;9.146;2023-06-24T08:01:33;24.90;96.40
7512;DHT22;9999;48.780;9.146;2023-06-24T08:04:00;24.90;99.90
7512;DHT22;9999;48.780;9.146;2023-06-24T08:06:27;25.00;94.70
7512;DHT22;9999;48.780;9.146;2023-06-24T08:08:53;25.20;94.50
7512;DHT22;9999;48.780;9.146;2023-06-24T08:11:20;24.60;93.30
7512;DHT22;9999;48.780;9.146;2023-06-24T08:13:50;24.50;94.00
7512;DHT22;9999;48.780;9.146;2023-06-24T08:16:17;24.70;95.30
7512;DHT22;9999;48.780;9.146;2023-06-24T08:18:47;25.40;95.50
7512;DHT22;9999;48.780;9.146;2023-06-24T08:21:14;25.80;93.10
7512;DHT22;9999;48.780;9.146;2023-06-24T08:23:40;25.40;92.00
7512;DHT22;9999;48.780;9.146;2023-06-24T08:26:07;24.80;94.50
7512;DHT22;9999;48.780;9.146;2023-06-24T08:28:35;25.30;94.20
7512;DHT22;9999;48.780;9.146;2023-06-24T08:31:02;25.50;92.00
7512;DHT22;9999;48.780;9.146;2023-06-24T08:33:29;25.70;92.50
7512;DHT22;9999;48.780;9.146;2023-06-24T08:36:02;26.00;91.10
7512;DHT22;9999;48.780;9.146;2023-06-24T08:38:35;26.30;90.20
7512;DHT22;9999;48.780;9.146;2023-06-24T08:41:02;26.50;88.90
7512;DHT22;9999;48.780;9.146;2023-06-24T08:43:29;26.40;90.00
7512;DHT22;9999;48.780;9.146;2023-06-24T08:45:56;26.60;90.20
7512;DHT22;9999;48.780;9.146;2023-06-24T08:48:23;26.90;90.70
7512;DHT22;9999;48.780;9.146;2023-06-24T08:50:52;27.00;85.60
7512;DHT22;9999;48.780;9.146;2023-06-24T08:53:21;26.90;84.10
7512;DHT22;9999;48.780;9.146;2023-06-24T08:55:49;26.80;85.30
7512;DHT22;9999;48.780;9.146;2023-06-24T08:58:20;27.00;86.10
7512;DHT22;9999;48.780;9.146;2023-06-24T09:00:46;27.00;85.30
7512;DHT22;9999;48.780;9.146;2023-06-24T09:03:13;27.10;84.00
7512;DHT22;9999;48.780;9.146;2023-06-24T09:05:40;26.40;79.00
7512;DHT22;9999;48.780;9.146;2023-06-24T09:08:07;26.10;81.60
7512;DHT22;9999;48.780;9.146;2023-06-24T09:10:36;26.40;78.00
7512;DHT22;9999;48.780;9.146;2023-06-24T09:13:04;26.70;82.60
7512;DHT22;9999;48.780;9.146;2023-06-24T09:15:31;26.90;81.40
7512;DHT22;9999;48.780;9.146;2023-06-24T09:17:58;27.20;80.40
7512;DHT22;9999;48.780;9.146;2023-06-24T09:20:26;27.50;76.40
7512;DHT22;9999;48.780;9.146;2023-06-24T09:23:03;27.50;75.30
7512;DHT22;9999;48.780;9.146;2023-06-24T09:25:31;27.60;76.50
7512;DHT22;9999;48.780;9.146;2023-06-24T09:28:01;27.60;75.90
7512;DHT22;9999;48.780;9.146;2023-06-24T09:30:28;27.60;71.50
7512;DHT22;9999;48.780;9.146;2023-06-24T09:32:55;27.80;72.40
7512;DHT22;9999;48.780;9.146;2023-06-24T09:35:23;27.70;70.40
7512;DHT22;9999;48.780;9.146;2023-06-24T09:37:51;27.70;73.80
7512;DHT22;9999;48.780;9.146;2023-06-24T09:40:18;27.80;74.60
7512;DHT22;9999;48.780;9.146;2023-06-24T09:42:51;27.90;69.90
7512;DHT22;9999;48.780;9.146;2023-06-24T09:45:25;27.90;72.10
7512;DHT22;9999;48.780;9.146;2023-06-24T09:47:52;28.00;68.40
7512;DHT22;9999;48.780;9.146;2023-06-24T09:50:19;28.00;67.10
7512;DHT22;9999;48.780;9.146;2023-06-24T09:52:47;27.90;70.70
7512;DHT22;9999;48.780;9.146;2023-06-24T09:55:16;28.00;69.20
7512;DHT22;9999;48.780;9.146;2023-06-24T09:57:45;28.00;67.10
7512;DHT22;9999;48.780;9.146;2023-06-24T10:00:13;28.10;62.40
7512;DHT22;9999;48.780;9.146;2023-06-24T10:02:43;28.10;67.80
7512;DHT22;9999;48.780;9.146;2023-06-24T10:05:10;28.20;68.60
7512;DHT22;9999;48.780;9.146;2023-06-24T10:07:39;28.30;67.00
7512;DHT22;9999;48.780;9.146;2023-06-24T10:10:07;28.40;66.80
7512;DHT22;9999;48.780;9.146;2023-06-24T10:12:35;28.30;65.20
7512;DHT22;9999;48.780;9.146;2023-06-24T10:15:03;28.20;63.90
7512;DHT22;9999;48.780;9.146;2023-06-24T10:17:30;28.20;63.40
7512;DHT22;9999;48.780;9.146;2023-06-24T10:20:03;28.40;66.00
7512;DHT22;9999;48.780;9.146;2023-06-24T10:22:30;28.20;59.80
7512;DHT22;9999;48.780;9.146;2023-06-24T10:25:01;28.00;59.50
7512;DHT22;9999;48.780;9.146;2023-06-24T10:27:28;27.90;59.20
7512;DHT22;9999;48.780;9.146;2023-06-24T10:30:02;27.80;61.70
7512;DHT22;9999;48.780;9.146;2023-06-24T10:32:39;28.10;63.60
7512;DHT22;9999;48.780;9.146;2023-06-24T10:35:24;28.10;63.70
7512;DHT22;9999;48.780;9.146;2023-06-24T10:37:57;28.10;60.80
7512;DHT22;9999;48.780;9.146;2023-06-24T10:40:38;28.30;61.60
7512;DHT22;9999;48.780;9.146;2023-06-24T10:43:23;28.20;61.40
7512;DHT22;9999;48.780;9.146;2023-06-24T10:45:52;27.80;60.70
7512;DHT22;9999;48.780;9.146;2023-06-24T10:48:19;28.10;62.80
7512;DHT22;9999;48.780;9.146;2023-06-24T10:50:48;28.00;59.60
7512;DHT22;9999;48.780;9.146;2023-06-24T10:53:16;28.20;60.20
7512;DHT22;9999;48.780;9.146;2023-06-24T10:55:45;28.40;60.20
7512;DHT22;9999;48.780;9.146;2023-06-24T10:58:13;28.60;59.40
7512;DHT22;9999;48.780;9.146;2023-06-24T11:00:41;28.80;62.70
7512;DHT22;9999;48.780;9.146;2023-06-24T11:03:10;28.80;59.30
7512;DHT22;9999;48.780;9.146;2023-06-24T11:05:39;28.70;57.80
7512;DHT22;9999;48.780;9.146;2023-06-24T11:08:08;28.30;59.90
7512;DHT22;9999;48.780;9.146;2023-06-24T11:10:42;27.90;57.10
7512;DHT22;9999;48.780;9.146;2023-06-24T11:13:10;27.90;58.50
7512;DHT22;9999;48.780;9.146;2023-06-24T11:15:38;28.10;56.30
7512;DHT22;9999;48.780;9.146;2023-06-24T11:18:08;28.40;59.60
7512;DHT22;9999;48.780;9.146;2023-06-24T11:20:36;28.60;56.90
7512;DHT22;9999;48.780;9.146;2023-06-24T11:23:05;28.70;57.20
7512;DHT22;9999;48.780;9.146;2023-06-24T11:25:38;28.80;54.20
7512;DHT22;9999;48.780;9.146;2023-06-24T11:28:11;28.90;55.40
7512;DHT22;9999;48.780;9.146;2023-06-24T11:30:38;28.80;53.90
7512;DHT22;9999;48.780;9.146;2023-06-24T11:33:05;28.90;54.60
7512;DHT22;9999;48.780;9.146;2023-06-24T11:35:32;28.80;54.10
7512;DHT22;9999;48.780;9.146;2023-06-24T11:38:01;29.10;52.60
7512;DHT22;9999;48.780;9.146;2023-06-24T11:40:31;28.90;51.40
7512;DHT22;9999;48.780;9.146;2023-06-24T11:43:00;28.80;53.00
7512;DHT22;9999;48.780;9.146;2023-06-24T11:45:27;28.60;52.40
7512;DHT22;9999;48.780;9.146;2023-06-24T11:48:01;28.60;52.70
7512;DHT22;9999;48.780;9.146;2023-06-24T11:50:30;28.50;53.30
7512;DHT22;9999;48.780;9.146;2023-06-24T11:52:57;28.50;53.30
7512;DHT22;9999;48.780;9.146;2023-06-24T11:55:28;28.80;53.10
7512;DHT22;9999;48.780;9.146;2023-06-24T11:58:00;29.20;53.00
7512;DHT22;9999;48.780;9.146;2023-06-24T12:00:32;29.00;53.80
7512;DHT22;9999;48.780;9.146;2023-06-24T12:03:03;28.90;53.40
7512;DHT22;9999;48.780;9.146;2023-06-24T12:05:32;29.00;51.90
7512;DHT22;9999;48.780;9.146;2023-06-24T12:08:01;29.20;51.30
7512;DHT22;9999;48.780;9.146;2023-06-24T12:10:30;29.30;52.30
7512;DHT22;9999;48.780;9.146;2023-06-24T12:12:59;29.00;53.00
7512;DHT22;9999;48.780;9.146;2023-06-24T12:15:27;29.30;52.80
7512;DHT22;9999;48.780;9.146;2023-06-24T12:17:54;29.20;55.40
7512;DHT22;9999;48.780;9.146;2023-06-24T12:20:23;29.30;52.80
7512;DHT22;9999;48.780;9.146;2023-06-24T12:22:50;29.50;51.80
7512;DHT22;9999;48.780;9.146;2023-06-24T12:25:18;29.50;53.10
7512;DHT22;9999;48.780;9.146;2023-06-24T12:27:45;29.50;52.90
7512;DHT22;9999;48.780;9.146;2023-06-24T12:30:14;29.50;52.10
7512;DHT22;9999;48.780;9.146;2023-06-24T12:32:42;29.60;52.00
7512;DHT22;9999;48.780;9.146;2023-06-24T12:35:09;29.70;49.50
7512;DHT22;9999;48.780;9.146;2023-06-24T12:37:37;29.80;51.20
7512;DHT22;9999;48.780;9.146;2023-06-24T12:40:05;29.90;50.40
7512;DHT22;9999;48.780;9.146;2023-06-24T12:42:32;29.70;52.10
7512;DHT22;9999;48.780;9.146;2023-06-24T12:44:59;29.90;48.20
7512;DHT22;9999;48.780;9.146;2023-06-24T12:47:28;29.40;49.70
7512;DHT22;9999;48.780;9.146;2023-06-24T12:49:56;29.70;50.60
7512;DHT22;9999;48.780;9.146;2023-06-24T12:52:23;29.70;51.60
7512;DHT22;9999;48.780;9.146;2023-06-24T12:54:50;29.70;51.70
7512;DHT22;9999;48.780;9.146;2023-06-24T12:57:17;29.50;49.30
7512;DHT22;9999;48.780;9.146;2023-06-24T12:59:44;29.40;51.50
7512;DHT22;9999;48.780;9.146;2023-06-24T13:02:11;29.40;54.20
7512;DHT22;9999;48.780;9.146;2023-06-24T13:04:39;29.40;50.90
7512;DHT22;9999;48.780;9.146;2023-06-24T13:07:06;29.70;53.40
7512;DHT22;9999;48.780;9.146;2023-06-24T13:09:35;29.60;51.40
7512;DHT22;9999;48.780;9.146;2023-06-24T13:12:03;29.20;50.20
7512;DHT22;9999;48.780;9.146;2023-06-24T13:14:30;29.30;51.30
7512;DHT22;9999;48.780;9.146;2023-06-24T13:16:57;29.40;53.80
7512;DHT22;9999;48.780;9.146;2023-06-24T13:19:24;29.90;49.70
7512;DHT22;9999;48.780;9.146;2023-06-24T13:21:52;30.10;50.20
7512;DHT22;9999;48.780;9.146;2023-06-24T13:24:19;29.80;49.90
7512;DHT22;9999;48.780;9.146;2023-06-24T13:26:46;29.60;51.80
7512;DHT22;9999;48.780;9.146;2023-06-24T13:29:13;29.70;52.50
7512;DHT22;9999;48.780;9.146;2023-06-24T13:31:40;29.70;52.70
7512;DHT22;9999;48.780;9.146;2023-06-24T13:34:07;29.80;52.30
7512;DHT22;9999;48.780;9.146;2023-06-24T13:36:35;29.90;52.10
7512;DHT22;9999;48.780;9.146;2023-06-24T13:39:04;30.00;50.10
7512;DHT22;9999;48.780;9.146;2023-06-24T13:41:31;29.80;51.10
7512;DHT22;9999;48.780;9.146;2023-06-24T13:43:59;29.70;50.10
7512;DHT22;9999;48.780;9.146;2023-06-24T13:46:27;29.80;51.70
7512;DHT22;9999;48.780;9.146;2023-06-24T13:48:53;29.70;50.10
7512;DHT22;9999;48.780;9.146;2023-06-24T13:51:21;29.70;52.30
7512;DHT22;9999;48.780;9.146;2023-06-24T13:53:48;29.90;49.20
7512;DHT22;9999;48.780;9.146;2023-06-24T13:56:17;30.10;51.30
7512;DHT22;9999;48.780;9.146;2023-06-24T13:58:44;30.10;49.90
7512;DHT22;9999;48.780;9.146;2023-06-24T14:01:11;30.00;49.40
7512;DHT22;9999;48.780;9.146;2023-06-24T14:03:38;30.00;49.30
7512;DHT22;9999;48.780;9.146;2023-06-24T14:06:05;29.40;48.10
7512;DHT22;9999;48.780;9.146;2023-06-24T14:08:33;29.10;49.40
7512;DHT22;9999;48.780;9.146;2023-06-24T14:11:00;29.10;50.30
7512;DHT22;9999;48.780;9.146;2023-06-24T14:13:29;29.10;51.70
7512;DHT22;9999;48.780;9.146;2023-06-24T14:15:56;29.40;51.60
7512;DHT22;9999;48.780;9.146;2023-06-24T14:18:23;29.60;50.20
7512;DHT22;9999;48.780;9.146;2023-06-24T14:20:50;29.60;51.00
7512;DHT22;9999;48.780;9.146;2023-06-24T14:23:17;29.60;50.10
7512;DHT22;9999;48.780;9.146;2023-06-24T14:25:44;29.60;50.10
7512;DHT22;9999;48.780;9.146;2023-06-24T14:28:11;29.60;52.40
7512;DHT22;9999;48.780;9.146;2023-06-24T14:30:39;29.50;52.80
7512;DHT22;9999;48.780;9.146;2023-06-24T14:33:07;29.40;52.00
7512;DHT22;9999;48.780;9.146;2023-06-24T14:35:34;29.40;51.80
7512;DHT22;9999;48.780;9.146;2023-06-24T14:38:00;29.50;51.00
7512;DHT22;9999;48.780;9.146;2023-06-24T14:40:27;29.50;52.60
7512;DHT22;9999;48.780;9.146;2023-06-24T14:42:55;29.60;52.50
7512;DHT22;9999;48.780;9.146;2023-06-24T14:45:21;29.60;51.30
7512;DHT22;9999;48.780;9.146;2023-06-24T14:47:50;29.40;50.60
7512;DHT22;9999;48.780;9.146;2023-06-24T14:50:17;29.30;51.00
7512;DHT22;9999;48.780;9.146;2023-06-24T14:52:44;29.30;51.20
7512;DHT22;9999;48.780;9.146;2023-06-24T14:55:11;29.30;50.90
7512;DHT22;9999;48.780;9.146;2023-06-24T14:57:38;29.30;50.40
7512;DHT22;9999;48.780;9.146;2023-06-24T15:00:06;29.10;52.00
7512;DHT22;9999;48.780;9.146;2023-06-24T15:02:33;29.10;51.10
7512;DHT22;9999;48.780;9.146;2023-06-24T15:05:02;28.80;49.20
7512;DHT22;9999;48.780;9.146;2023-06-24T15:07:29;28.80;51.80
7512;DHT22;9999;48.780;9.146;2023-06-24T15:09:56;29.00;51.70
7512;DHT22;9999;48.780;9.146;2023-06-24T15:12:23;29.00;51.90
7512;DHT22;9999;48.780;9.146;2023-06-24T15:14:50;29.10;52.80
7512;DHT22;9999;48.780;9.146;2023-06-24T15:17:17;29.10;52.30
7512;DHT22;9999;48.780;9.146;2023-06-24T15:19:43;29.10;52.20
7512;DHT22;9999;48.780;9.146;2023-06-24T15:22:12;29.10;52.70
7512;DHT22;9999;48.780;9.146;2023-06-24T15:24:38;29.30;51.50
7512;DHT22;9999;48.780;9.146;2023-06-24T15:27:05;29.30;50.90
7512;DHT22;9999;48.780;9.146;2023-06-24T15:29:32;29.20;51.90
7512;DHT22;9999;48.780;9.146;2023-06-24T15:31:59;29.10;52.70
7512;DHT22;9999;48.780;9.146;2023-06-24T15:34:27;28.90;52.50
7512;DHT22;9999;48.780;9.146;2023-06-24T15:36:54;29.00;51.20
7512;DHT22;9999;48.780;9.146;2023-06-24T15:39:22;29.00;51.00
7512;DHT22;9999;48.780;9.146;2023-06-24T15:41:49;28.80;52.40
7512;DHT22;9999;48.780;9.146;2023-06-24T15:44:16;28.70;52.50
7512;DHT22;9999;48.780;9.146;2023-06-24T15:46:43;28.70;52.80
7512;DHT22;9999;48.780;9.146;2023-06-24T15:49:13;28.80;53.20
7512;DHT22;9999;48.780;9.146;2023-06-24T15:51:40;28.90;52.00
7512;DHT22;9999;48.780;9.146;2023-06-24T15:54:07;28.70;52.40
7512;DHT22;9999;48.780;9.146;2023-06-24T15:56:35;28.50;51.60
7512;DHT22;9999;48.780;9.146;2023-06-24T15:59:02;28.40;52.90
7512;DHT22;9999;48.780;9.146;2023-06-24T16:01:29;28.40;53.60
7512;DHT22;9999;48.780;9.146;2023-06-24T16:03:56;28.50;52.10
7512;DHT22;9999;48.780;9.146;2023-06-24T16:06:23;28.40;51.70
7512;DHT22;9999;48.780;9.146;2023-06-24T16:08:50;28.40;52.70